sensor_id;sensor_type;location;lat;lon;timestamp;P1;durP1;ratioP1;P2;durP2;ratioP2
32319;SDS011;19080;51.750;5.888;2023-07-08T00:00:53;4.28;;;2.38;;
32319;SDS011;19080;51.750;5.888;2023-07-08T00:03:21;4.15;;;2.33;;
32319;SDS011;19080;51.750;5.888;2023-07-08T00:05:48;5.15;;;2.50;;
32319;SDS011;19080;51.750;5.888;2023-07-08T00:08:19;3.10;;;2.28;;
32319;SDS011;19080;51.750;5.888;2023-07-08T00:10:47;5.63;;;2.50;;
32319;SDS011;19080;51.750;5.888;2023-07-08T00:13:14;5.00;;;2.47;;
32319;SDS011;19080;51.750;5.888;2023-07-08T00:15:40;4.60;;;2.63;;
32319;SDS011;19080;51.750;5.888;2023-07-08T00:18:11;5.40;;;2.30;;
32319;SDS011;19080;51.750;5.888;2023-07-08T00:20:40;4.47;;;2.20;;
32319;SDS011;19080;51.750;5.888;2023-07-08T00:23:10;3.72;;;1.98;;
32319;SDS011;19080;51.750;5.888;2023-07-08T00:25:37;5.18;;;2.50;;
32319;SDS011;19080;51.750;5.888;2023-07-08T00:28:08;3.78;;;2.72;;
32319;SDS011;19080;51.750;5.888;2023-07-08T00:33:03;3.33;;;2.50;;
32319;SDS011;19080;51.750;5.888;2023-07-08T00:35:33;4.40;;;2.08;;
32319;SDS011;19080;51.750;5.888;2023-07-08T00:40:51;4.78;;;2.38;;
32319;SDS011;19080;51.750;5.888;2023-07-08T00:43:19;4.00;;;2.53;;
32319;SDS011;19080;51.750;5.888;2023-07-08T00:45:53;4.00;;;2.25;;
32319;SDS011;19080;51.750;5.888;2023-07-08T00:48:30;4.88;;;2.42;;
32319;SDS011;19080;51.750;5.888;2023-07-08T00:51:01;3.00;;;2.30;;
32319;SDS011;19080;51.750;5.888;2023-07-08T00:56:09;4.47;;;2.42;;
32319;SDS011;19080;51.750;5.888;2023-07-08T00:58:45;6.10;;;2.28;;
32319;SDS011;19080;51.750;5.888;2023-07-08T01:01:19;3.70;;;2.28;;
32319;SDS011;19080;51.750;5.888;2023-07-08T01:03:50;4.95;;;2.70;;
32319;SDS011;19080;51.750;5.888;2023-07-08T01:06:28;4.05;;;2.47;;
32319;SDS011;19080;51.750;5.888;2023-07-08T01:09:00;5.18;;;2.45;;
32319;SDS011;19080;51.750;5.888;2023-07-08T01:11:32;4.47;;;2.70;;
32319;SDS011;19080;51.750;5.888;2023-07-08T01:14:01;3.47;;;2.05;;
32319;SDS011;19080;51.750;5.888;2023-07-08T01:16:32;5.47;;;2.78;;
32319;SDS011;19080;51.750;5.888;2023-07-08T01:19:00;4.38;;;2.63;;
32319;SDS011;19080;51.750;5.888;2023-07-08T01:21:30;6.60;;;2.45;;
32319;SDS011;19080;51.750;5.888;2023-07-08T01:24:01;4.40;;;2.50;;
32319;SDS011;19080;51.750;5.888;2023-07-08T01:26:31;4.85;;;2.20;;
32319;SDS011;19080;51.750;5.888;2023-07-08T01:29:01;3.33;;;2.45;;
32319;SDS011;19080;51.750;5.888;2023-07-08T01:31:30;2.80;;;2.20;;
32319;SDS011;19080;51.750;5.888;2023-07-08T01:33:57;3.80;;;2.58;;
32319;SDS011;19080;51.750;5.888;2023-07-08T01:36:24;7.18;;;2.83;;
32319;SDS011;19080;51.750;5.888;2023-07-08T01:38:52;6.15;;;2.40;;
32319;SDS011;19080;51.750;5.888;2023-07-08T01:41:19;4.35;;;2.22;;
32319;SDS011;19080;51.750;5.888;2023-07-08T01:43:46;6.47;;;2.65;;
32319;SDS011;19080;51.750;5.888;2023-07-08T01:46:18;4.70;;;2.50;;
32319;SDS011;19080;51.750;5.888;2023-07-08T01:48:50;6.25;;;2.38;;
32319;SDS011;19080;51.750;5.888;2023-07-08T01:53:48;3.78;;;2.30;;
32319;SDS011;19080;51.750;5.888;2023-07-08T01:56:15;4.03;;;2.75;;
32319;SDS011;19080;51.750;5.888;2023-07-08T01:58:42;6.05;;;2.95;;
32319;SDS011;19080;51.750;5.888;2023-07-08T02:01:09;3.13;;;2.58;;
32319;SDS011;19080;51.750;5.888;2023-07-08T02:03:36;3.85;;;2.10;;
32319;SDS011;19080;51.750;5.888;2023-07-08T02:06:03;4.07;;;2.58;;
32319;SDS011;19080;51.750;5.888;2023-07-08T02:08:32;2.88;;;2.58;;
32319;SDS011;19080;51.750;5.888;2023-07-08T02:11:00;3.13;;;2.33;;
32319;SDS011;19080;51.750;5.888;2023-07-08T02:13:28;2.60;;;2.40;;
32319;SDS011;19080;51.750;5.888;2023-07-08T02:15:55;2.88;;;2.08;;
32319;SDS011;19080;51.750;5.888;2023-07-08T02:18:22;4.35;;;2.20;;
32319;SDS011;19080;51.750;5.888;2023-07-08T02:20:52;4.82;;;2.85;;
32319;SDS011;19080;51.750;5.888;2023-07-08T02:23:18;5.50;;;2.38;;
32319;SDS011;19080;51.750;5.888;2023-07-08T02:25:52;5.03;;;2.50;;
32319;SDS011;19080;51.750;5.888;2023-07-08T02:28:20;3.70;;;2.25;;
32319;SDS011;19080;51.750;5.888;2023-07-08T02:30:47;7.18;;;2.50;;
32319;SDS011;19080;51.750;5.888;2023-07-08T02:33:14;3.63;;;2.38;;
32319;SDS011;19080;51.750;5.888;2023-07-08T02:35:44;5.53;;;2.83;;
32319;SDS011;19080;51.750;5.888;2023-07-08T02:38:12;3.10;;;2.80;;
32319;SDS011;19080;51.750;5.888;2023-07-08T02:40:39;4.10;;;2.67;;
32319;SDS011;19080;51.750;5.888;2023-07-08T02:43:06;4.20;;;2.50;;
32319;SDS011;19080;51.750;5.888;2023-07-08T02:45:33;4.35;;;2.40;;
32319;SDS011;19080;51.750;5.888;2023-07-08T02:48:01;5.53;;;2.55;;
32319;SDS011;19080;51.750;5.888;2023-07-08T02:50:27;4.22;;;2.42;;
32319;SDS011;19080;51.750;5.888;2023-07-08T02:52:54;4.72;;;3.10;;
32319;SDS011;19080;51.750;5.888;2023-07-08T02:55:21;5.97;;;2.58;;
32319;SDS011;19080;51.750;5.888;2023-07-08T02:57:48;4.55;;;3.47;;
32319;SDS011;19080;51.750;5.888;2023-07-08T03:00:15;4.35;;;2.72;;
32319;SDS011;19080;51.750;5.888;2023-07-08T03:02:42;2.55;;;2.35;;
32319;SDS011;19080;51.750;5.888;2023-07-08T03:05:08;5.90;;;2.30;;
32319;SDS011;19080;51.750;5.888;2023-07-08T03:07:35;3.47;;;2.58;;
32319;SDS011;19080;51.750;5.888;2023-07-08T03:10:02;4.47;;;1.92;;
32319;SDS011;19080;51.750;5.888;2023-07-08T03:12:29;5.60;;;2.75;;
32319;SDS011;19080;51.750;5.888;2023-07-08T03:14:56;3.50;;;2.33;;
32319;SDS011;19080;51.750;5.888;2023-07-08T03:17:23;2.90;;;2.40;;
32319;SDS011;19080;51.750;5.888;2023-07-08T03:19:50;3.90;;;2.47;;
32319;SDS011;19080;51.750;5.888;2023-07-08T03:22:17;4.18;;;2.63;;
32319;SDS011;19080;51.750;5.888;2023-07-08T03:24:43;2.60;;;2.30;;
32319;SDS011;19080;51.750;5.888;2023-07-08T03:27:17;3.10;;;2.80;;
32319;SDS011;19080;51.750;5.888;2023-07-08T03:29:47;3.08;;;2.72;;
32319;SDS011;19080;51.750;5.888;2023-07-08T03:32:13;3.67;;;2.72;;
32319;SDS011;19080;51.750;5.888;2023-07-08T03:34:40;7.15;;;3.42;;
32319;SDS011;19080;51.750;5.888;2023-07-08T03:37:08;3.55;;;2.85;;
32319;SDS011;19080;51.750;5.888;2023-07-08T03:39:35;3.88;;;2.85;;
32319;SDS011;19080;51.750;5.888;2023-07-08T03:42:02;4.22;;;2.80;;
32319;SDS011;19080;51.750;5.888;2023-07-08T03:44:30;3.85;;;2.50;;
32319;SDS011;19080;51.750;5.888;2023-07-08T03:46:58;4.25;;;2.70;;
32319;SDS011;19080;51.750;5.888;2023-07-08T03:49:25;4.32;;;2.78;;
32319;SDS011;19080;51.750;5.888;2023-07-08T03:51:54;2.85;;;2.53;;
32319;SDS011;19080;51.750;5.888;2023-07-08T03:54:22;5.38;;;2.85;;
32319;SDS011;19080;51.750;5.888;2023-07-08T03:56:52;3.92;;;2.40;;
32319;SDS011;19080;51.750;5.888;2023-07-08T03:59:21;2.88;;;2.53;;
32319;SDS011;19080;51.750;5.888;2023-07-08T04:01:49;3.35;;;2.95;;
32319;SDS011;19080;51.750;5.888;2023-07-08T04:04:16;4.88;;;2.38;;
32319;SDS011;19080;51.750;5.888;2023-07-08T04:06:43;3.88;;;2.97;;
32319;SDS011;19080;51.750;5.888;2023-07-08T04:09:12;4.43;;;2.72;;
32319;SDS011;19080;51.750;5.888;2023-07-08T04:11:39;3.92;;;2.78;;
32319;SDS011;19080;51.750;5.888;2023-07-08T04:14:06;4.35;;;2.47;;
32319;SDS011;19080;51.750;5.888;2023-07-08T04:16:45;3.35;;;2.80;;
32319;SDS011;19080;51.750;5.888;2023-07-08T04:19:14;6.22;;;3.10;;
32319;SDS011;19080;51.750;5.888;2023-07-08T04:21:42;5.75;;;3.00;;
32319;SDS011;19080;51.750;5.888;2023-07-08T04:24:10;3.17;;;2.60;;
32319;SDS011;19080;51.750;5.888;2023-07-08T04:26:39;4.38;;;2.80;;
32319;SDS011;19080;51.750;5.888;2023-07-08T04:29:15;6.25;;;2.97;;
32319;SDS011;19080;51.750;5.888;2023-07-08T04:31:43;5.68;;;2.95;;
32319;SDS011;19080;51.750;5.888;2023-07-08T04:34:10;3.60;;;2.92;;
32319;SDS011;19080;51.750;5.888;2023-07-08T04:36:37;3.90;;;2.75;;
32319;SDS011;19080;51.750;5.888;2023-07-08T04:39:04;4.05;;;2.97;;
32319;SDS011;19080;51.750;5.888;2023-07-08T04:41:32;4.20;;;2.83;;
32319;SDS011;19080;51.750;5.888;2023-07-08T04:44:00;5.57;;;2.65;;
32319;SDS011;19080;51.750;5.888;2023-07-08T04:49:04;3.90;;;2.90;;
32319;SDS011;19080;51.750;5.888;2023-07-08T04:51:32;2.80;;;2.47;;
32319;SDS011;19080;51.750;5.888;2023-07-08T04:53:59;7.93;;;3.25;;
32319;SDS011;19080;51.750;5.888;2023-07-08T04:56:34;4.80;;;2.60;;
32319;SDS011;19080;51.750;5.888;2023-07-08T04:59:03;3.47;;;2.90;;
32319;SDS011;19080;51.750;5.888;2023-07-08T05:01:31;6.38;;;2.92;;
32319;SDS011;19080;51.750;5.888;2023-07-08T05:03:58;3.72;;;2.90;;
32319;SDS011;19080;51.750;5.888;2023-07-08T05:06:26;5.15;;;3.03;;
32319;SDS011;19080;51.750;5.888;2023-07-08T05:08:52;3.65;;;2.80;;
32319;SDS011;19080;51.750;5.888;2023-07-08T05:11:19;3.13;;;2.83;;
32319;SDS011;19080;51.750;5.888;2023-07-08T05:13:46;6.15;;;2.90;;
32319;SDS011;19080;51.750;5.888;2023-07-08T05:16:13;5.85;;;2.83;;
32319;SDS011;19080;51.750;5.888;2023-07-08T05:18:40;3.28;;;2.97;;
32319;SDS011;19080;51.750;5.888;2023-07-08T05:21:06;3.47;;;2.85;;
32319;SDS011;19080;51.750;5.888;2023-07-08T05:23:35;4.53;;;3.30;;
32319;SDS011;19080;51.750;5.888;2023-07-08T05:26:02;2.97;;;2.70;;
32319;SDS011;19080;51.750;5.888;2023-07-08T05:28:30;4.70;;;3.35;;
32319;SDS011;19080;51.750;5.888;2023-07-08T05:30:57;7.57;;;3.17;;
32319;SDS011;19080;51.750;5.888;2023-07-08T05:33:25;6.03;;;3.00;;
32319;SDS011;19080;51.750;5.888;2023-07-08T05:35:54;5.65;;;3.10;;
32319;SDS011;19080;51.750;5.888;2023-07-08T05:38:21;4.05;;;3.17;;
32319;SDS011;19080;51.750;5.888;2023-07-08T05:40:53;4.22;;;2.83;;
32319;SDS011;19080;51.750;5.888;2023-07-08T05:43:21;4.03;;;3.17;;
32319;SDS011;19080;51.750;5.888;2023-07-08T05:45:48;5.78;;;3.00;;
32319;SDS011;19080;51.750;5.888;2023-07-08T05:48:35;5.63;;;2.95;;
32319;SDS011;19080;51.750;5.888;2023-07-08T05:51:02;6.85;;;3.28;;
32319;SDS011;19080;51.750;5.888;2023-07-08T05:53:29;3.38;;;3.08;;
32319;SDS011;19080;51.750;5.888;2023-07-08T05:55:56;4.03;;;3.08;;
32319;SDS011;19080;51.750;5.888;2023-07-08T05:58:22;5.47;;;3.08;;
32319;SDS011;19080;51.750;5.888;2023-07-08T06:00:56;3.53;;;2.75;;
32319;SDS011;19080;51.750;5.888;2023-07-08T06:03:24;4.80;;;3.33;;
32319;SDS011;19080;51.750;5.888;2023-07-08T06:05:51;5.75;;;2.80;;
32319;SDS011;19080;51.750;5.888;2023-07-08T06:08:19;3.28;;;2.97;;
32319;SDS011;19080;51.750;5.888;2023-07-08T06:10:46;3.90;;;2.90;;
32319;SDS011;19080;51.750;5.888;2023-07-08T06:13:13;5.25;;;3.17;;
32319;SDS011;19080;51.750;5.888;2023-07-08T06:15:40;4.97;;;3.45;;
32319;SDS011;19080;51.750;5.888;2023-07-08T06:18:08;3.83;;;2.95;;
32319;SDS011;19080;51.750;5.888;2023-07-08T06:20:35;6.80;;;2.78;;
32319;SDS011;19080;51.750;5.888;2023-07-08T06:23:02;3.50;;;3.15;;
32319;SDS011;19080;51.750;5.888;2023-07-08T06:25:29;4.97;;;2.85;;
32319;SDS011;19080;51.750;5.888;2023-07-08T06:27:56;4.68;;;2.70;;
32319;SDS011;19080;51.750;5.888;2023-07-08T06:30:23;8.18;;;3.13;;
32319;SDS011;19080;51.750;5.888;2023-07-08T06:32:49;5.45;;;3.05;;
32319;SDS011;19080;51.750;5.888;2023-07-08T06:35:17;5.85;;;3.10;;
32319;SDS011;19080;51.750;5.888;2023-07-08T06:37:44;5.30;;;2.80;;
32319;SDS011;19080;51.750;5.888;2023-07-08T06:40:11;6.63;;;2.70;;
32319;SDS011;19080;51.750;5.888;2023-07-08T06:42:38;5.43;;;2.90;;
32319;SDS011;19080;51.750;5.888;2023-07-08T06:45:18;6.05;;;3.10;;
32319;SDS011;19080;51.750;5.888;2023-07-08T06:47:45;4.30;;;3.33;;
32319;SDS011;19080;51.750;5.888;2023-07-08T06:50:12;3.88;;;2.80;;
32319;SDS011;19080;51.750;5.888;2023-07-08T06:52:39;3.60;;;3.17;;
32319;SDS011;19080;51.750;5.888;2023-07-08T06:55:07;5.32;;;3.58;;
32319;SDS011;19080;51.750;5.888;2023-07-08T06:57:35;4.75;;;2.90;;
32319;SDS011;19080;51.750;5.888;2023-07-08T07:00:07;7.50;;;3.20;;
32319;SDS011;19080;51.750;5.888;2023-07-08T07:05:03;4.45;;;2.97;;
32319;SDS011;19080;51.750;5.888;2023-07-08T07:07:30;4.63;;;2.88;;
32319;SDS011;19080;51.750;5.888;2023-07-08T07:09:57;4.22;;;2.83;;
32319;SDS011;19080;51.750;5.888;2023-07-08T07:12:24;6.95;;;3.33;;
32319;SDS011;19080;51.750;5.888;2023-07-08T07:14:51;5.82;;;3.17;;
32319;SDS011;19080;51.750;5.888;2023-07-08T07:17:20;4.78;;;2.85;;
32319;SDS011;19080;51.750;5.888;2023-07-08T07:19:48;5.38;;;3.10;;
32319;SDS011;19080;51.750;5.888;2023-07-08T07:22:15;7.18;;;3.10;;
32319;SDS011;19080;51.750;5.888;2023-07-08T07:24:42;4.32;;;3.50;;
32319;SDS011;19080;51.750;5.888;2023-07-08T07:27:09;4.97;;;3.22;;
32319;SDS011;19080;51.750;5.888;2023-07-08T07:29:43;5.70;;;3.30;;
32319;SDS011;19080;51.750;5.888;2023-07-08T07:32:12;4.50;;;3.22;;
32319;SDS011;19080;51.750;5.888;2023-07-08T07:34:41;4.75;;;3.35;;
32319;SDS011;19080;51.750;5.888;2023-07-08T07:37:12;3.70;;;3.38;;
32319;SDS011;19080;51.750;5.888;2023-07-08T07:39:39;5.55;;;3.72;;
32319;SDS011;19080;51.750;5.888;2023-07-08T07:42:07;6.05;;;3.92;;
32319;SDS011;19080;51.750;5.888;2023-07-08T07:44:35;5.53;;;3.53;;
32319;SDS011;19080;51.750;5.888;2023-07-08T07:47:02;4.57;;;3.55;;
32319;SDS011;19080;51.750;5.888;2023-07-08T07:49:29;6.82;;;3.60;;
32319;SDS011;19080;51.750;5.888;2023-07-08T07:51:56;5.07;;;3.90;;
32319;SDS011;19080;51.750;5.888;2023-07-08T07:54:23;9.85;;;4.65;;
32319;SDS011;19080;51.750;5.888;2023-07-08T07:56:50;7.22;;;4.20;;
32319;SDS011;19080;51.750;5.888;2023-07-08T07:59:17;5.72;;;3.88;;
32319;SDS011;19080;51.750;5.888;2023-07-08T08:01:44;5.35;;;4.07;;
32319;SDS011;19080;51.750;5.888;2023-07-08T08:04:11;4.45;;;3.80;;
32319;SDS011;19080;51.750;5.888;2023-07-08T08:06:38;5.57;;;4.18;;
32319;SDS011;19080;51.750;5.888;2023-07-08T08:09:05;5.20;;;4.22;;
32319;SDS011;19080;51.750;5.888;2023-07-08T08:11:33;6.82;;;3.92;;
32319;SDS011;19080;51.750;5.888;2023-07-08T08:14:00;7.57;;;3.90;;
32319;SDS011;19080;51.750;5.888;2023-07-08T08:16:27;5.15;;;4.13;;
32319;SDS011;19080;51.750;5.888;2023-07-08T08:18:54;6.40;;;4.32;;
32319;SDS011;19080;51.750;5.888;2023-07-08T08:21:21;5.30;;;3.55;;
32319;SDS011;19080;51.750;5.888;2023-07-08T08:23:48;6.30;;;3.65;;
32319;SDS011;19080;51.750;5.888;2023-07-08T08:26:14;4.88;;;3.75;;
32319;SDS011;19080;51.750;5.888;2023-07-08T08:28:41;6.72;;;4.43;;
32319;SDS011;19080;51.750;5.888;2023-07-08T08:31:08;4.82;;;3.88;;
32319;SDS011;19080;51.750;5.888;2023-07-08T08:33:34;5.30;;;4.18;;
32319;SDS011;19080;51.750;5.888;2023-07-08T08:36:01;9.77;;;4.15;;
32319;SDS011;19080;51.750;5.888;2023-07-08T08:38:29;6.72;;;4.30;;
32319;SDS011;19080;51.750;5.888;2023-07-08T08:40:55;6.65;;;4.30;;
32319;SDS011;19080;51.750;5.888;2023-07-08T08:43:23;5.97;;;4.22;;
32319;SDS011;19080;51.750;5.888;2023-07-08T08:46:06;5.45;;;3.97;;
32319;SDS011;19080;51.750;5.888;2023-07-08T08:49:01;6.72;;;4.45;;
32319;SDS011;19080;51.750;5.888;2023-07-08T08:51:33;6.75;;;4.03;;
32319;SDS011;19080;51.750;5.888;2023-07-08T08:54:00;7.10;;;4.45;;
32319;SDS011;19080;51.750;5.888;2023-07-08T08:56:28;4.90;;;4.35;;
32319;SDS011;19080;51.750;5.888;2023-07-08T09:01:44;9.93;;;4.95;;
32319;SDS011;19080;51.750;5.888;2023-07-08T09:04:14;4.72;;;4.22;;
32319;SDS011;19080;51.750;5.888;2023-07-08T09:06:46;5.80;;;4.35;;
32319;SDS011;19080;51.750;5.888;2023-07-08T09:09:15;9.52;;;5.40;;
32319;SDS011;19080;51.750;5.888;2023-07-08T09:11:54;6.18;;;4.95;;
32319;SDS011;19080;51.750;5.888;2023-07-08T09:14:30;5.97;;;4.40;;
32319;SDS011;19080;51.750;5.888;2023-07-08T09:17:07;7.45;;;5.05;;
32319;SDS011;19080;51.750;5.888;2023-07-08T09:28:02;10.13;;;5.75;;
32319;SDS011;19080;51.750;5.888;2023-07-08T09:30:28;7.22;;;4.55;;
32319;SDS011;19080;51.750;5.888;2023-07-08T09:32:57;8.05;;;5.25;;
32319;SDS011;19080;51.750;5.888;2023-07-08T09:35:29;9.80;;;5.32;;
32319;SDS011;19080;51.750;5.888;2023-07-08T09:38:09;12.05;;;5.68;;
32319;SDS011;19080;51.750;5.888;2023-07-08T09:40:49;8.15;;;4.85;;
32319;SDS011;19080;51.750;5.888;2023-07-08T09:43:27;5.80;;;5.10;;
32319;SDS011;19080;51.750;5.888;2023-07-08T09:46:00;7.28;;;5.50;;
32319;SDS011;19080;51.750;5.888;2023-07-08T09:48:28;9.07;;;5.20;;
32319;SDS011;19080;51.750;5.888;2023-07-08T09:50:56;7.82;;;5.32;;
32319;SDS011;19080;51.750;5.888;2023-07-08T09:53:24;9.38;;;5.70;;
32319;SDS011;19080;51.750;5.888;2023-07-08T09:55:53;7.90;;;5.30;;
32319;SDS011;19080;51.750;5.888;2023-07-08T09:58:29;8.45;;;5.53;;
32319;SDS011;19080;51.750;5.888;2023-07-08T10:01:01;6.65;;;4.95;;
32319;SDS011;19080;51.750;5.888;2023-07-08T10:03:35;9.05;;;5.10;;
32319;SDS011;19080;51.750;5.888;2023-07-08T10:06:06;6.70;;;5.05;;
32319;SDS011;19080;51.750;5.888;2023-07-08T10:08:44;9.45;;;6.00;;
32319;SDS011;19080;51.750;5.888;2023-07-08T10:11:19;8.55;;;5.82;;
32319;SDS011;19080;51.750;5.888;2023-07-08T10:13:53;9.45;;;5.50;;
32319;SDS011;19080;51.750;5.888;2023-07-08T10:16:39;9.77;;;5.18;;
32319;SDS011;19080;51.750;5.888;2023-07-08T10:19:13;8.40;;;5.15;;
32319;SDS011;19080;51.750;5.888;2023-07-08T10:21:48;6.30;;;5.00;;
32319;SDS011;19080;51.750;5.888;2023-07-08T10:26:56;9.63;;;6.07;;
32319;SDS011;19080;51.750;5.888;2023-07-08T10:29:32;6.88;;;5.22;;
32319;SDS011;19080;51.750;5.888;2023-07-08T10:40:39;11.45;;;5.50;;
32319;SDS011;19080;51.750;5.888;2023-07-08T10:45:46;9.02;;;5.70;;
32319;SDS011;19080;51.750;5.888;2023-07-08T11:02:15;8.02;;;5.32;;
32319;SDS011;19080;51.750;5.888;2023-07-08T11:07:36;7.78;;;5.53;;
32319;SDS011;19080;51.750;5.888;2023-07-08T11:10:18;8.27;;;5.80;;
32319;SDS011;19080;51.750;5.888;2023-07-08T11:13:00;8.90;;;6.18;;
32319;SDS011;19080;51.750;5.888;2023-07-08T11:15:33;7.50;;;5.63;;
32319;SDS011;19080;51.750;5.888;2023-07-08T11:20:50;8.52;;;5.97;;
32319;SDS011;19080;51.750;5.888;2023-07-08T11:23:40;9.43;;;6.30;;
32319;SDS011;19080;51.750;5.888;2023-07-08T11:26:18;8.27;;;6.05;;
32319;SDS011;19080;51.750;5.888;2023-07-08T11:28:51;6.72;;;5.75;;
32319;SDS011;19080;51.750;5.888;2023-07-08T11:31:22;10.48;;;5.38;;
32319;SDS011;19080;51.750;5.888;2023-07-08T11:33:52;8.50;;;5.80;;
32319;SDS011;19080;51.750;5.888;2023-07-08T11:36:20;8.23;;;5.82;;
32319;SDS011;19080;51.750;5.888;2023-07-08T11:38:49;8.18;;;6.10;;
32319;SDS011;19080;51.750;5.888;2023-07-08T11:41:18;7.88;;;5.38;;
32319;SDS011;19080;51.750;5.888;2023-07-08T11:43:48;9.05;;;5.88;;
32319;SDS011;19080;51.750;5.888;2023-07-08T11:46:18;8.25;;;5.90;;
32319;SDS011;19080;51.750;5.888;2023-07-08T11:48:48;8.55;;;6.00;;
32319;SDS011;19080;51.750;5.888;2023-07-08T11:51:22;8.40;;;5.53;;
32319;SDS011;19080;51.750;5.888;2023-07-08T11:56:50;10.20;;;5.88;;
32319;SDS011;19080;51.750;5.888;2023-07-08T11:59:26;10.13;;;5.97;;
32319;SDS011;19080;51.750;5.888;2023-07-08T12:02:04;6.03;;;5.22;;
32319;SDS011;19080;51.750;5.888;2023-07-08T12:04:52;5.95;;;5.10;;
32319;SDS011;19080;51.750;5.888;2023-07-08T12:07:33;10.05;;;5.82;;
32319;SDS011;19080;51.750;5.888;2023-07-08T12:10:11;9.15;;;5.32;;
32319;SDS011;19080;51.750;5.888;2023-07-08T12:12:45;8.25;;;6.10;;
32319;SDS011;19080;51.750;5.888;2023-07-08T12:15:26;6.72;;;5.32;;
32319;SDS011;19080;51.750;5.888;2023-07-08T12:18:10;6.82;;;5.63;;
32319;SDS011;19080;51.750;5.888;2023-07-08T12:20:40;8.07;;;5.95;;
32319;SDS011;19080;51.750;5.888;2023-07-08T12:23:12;7.05;;;5.55;;
32319;SDS011;19080;51.750;5.888;2023-07-08T12:25:41;5.53;;;5.00;;
32319;SDS011;19080;51.750;5.888;2023-07-08T12:28:08;6.05;;;4.95;;
32319;SDS011;19080;51.750;5.888;2023-07-08T12:30:36;8.77;;;5.68;;
32319;SDS011;19080;51.750;5.888;2023-07-08T12:33:02;7.82;;;5.32;;
32319;SDS011;19080;51.750;5.888;2023-07-08T12:35:34;6.53;;;5.65;;
32319;SDS011;19080;51.750;5.888;2023-07-08T12:38:15;8.10;;;5.68;;
32319;SDS011;19080;51.750;5.888;2023-07-08T12:40:46;8.98;;;5.57;;
32319;SDS011;19080;51.750;5.888;2023-07-08T12:43:13;9.30;;;5.70;;
32319;SDS011;19080;51.750;5.888;2023-07-08T12:45:42;6.93;;;5.57;;
32319;SDS011;19080;51.750;5.888;2023-07-08T12:48:08;8.10;;;5.53;;
32319;SDS011;19080;51.750;5.888;2023-07-08T12:50:35;6.07;;;5.47;;
32319;SDS011;19080;51.750;5.888;2023-07-08T12:53:03;6.63;;;5.15;;
32319;SDS011;19080;51.750;5.888;2023-07-08T12:55:36;8.82;;;5.38;;
32319;SDS011;19080;51.750;5.888;2023-07-08T12:58:05;8.23;;;5.13;;
32319;SDS011;19080;51.750;5.888;2023-07-08T13:00:34;9.88;;;5.95;;
32319;SDS011;19080;51.750;5.888;2023-07-08T13:03:12;6.28;;;5.28;;
32319;SDS011;19080;51.750;5.888;2023-07-08T13:05:41;8.15;;;5.32;;
32319;SDS011;19080;51.750;5.888;2023-07-08T13:08:20;7.75;;;4.82;;
32319;SDS011;19080;51.750;5.888;2023-07-08T13:10:49;6.28;;;5.43;;
32319;SDS011;19080;51.750;5.888;2023-07-08T13:13:23;7.63;;;5.38;;
32319;SDS011;19080;51.750;5.888;2023-07-08T13:15:52;7.25;;;5.72;;
32319;SDS011;19080;51.750;5.888;2023-07-08T13:20:58;6.78;;;5.18;;
32319;SDS011;19080;51.750;5.888;2023-07-08T13:23:26;10.25;;;5.55;;
32319;SDS011;19080;51.750;5.888;2023-07-08T13:25:54;7.43;;;5.40;;
32319;SDS011;19080;51.750;5.888;2023-07-08T13:28:25;6.78;;;4.85;;
32319;SDS011;19080;51.750;5.888;2023-07-08T13:30:55;6.93;;;5.65;;
32319;SDS011;19080;51.750;5.888;2023-07-08T13:33:23;7.63;;;5.57;;
32319;SDS011;19080;51.750;5.888;2023-07-08T13:35:50;7.40;;;5.20;;
32319;SDS011;19080;51.750;5.888;2023-07-08T13:38:19;6.43;;;5.28;;
32319;SDS011;19080;51.750;5.888;2023-07-08T13:40:58;9.27;;;5.43;;
32319;SDS011;19080;51.750;5.888;2023-07-08T13:43:28;7.00;;;4.70;;
32319;SDS011;19080;51.750;5.888;2023-07-08T13:45:59;8.48;;;5.80;;
32319;SDS011;19080;51.750;5.888;2023-07-08T13:48:28;7.85;;;5.32;;
32319;SDS011;19080;51.750;5.888;2023-07-08T13:50:56;5.75;;;5.07;;
32319;SDS011;19080;51.750;5.888;2023-07-08T13:58:46;6.18;;;5.43;;
32319;SDS011;19080;51.750;5.888;2023-07-08T14:03:49;7.13;;;4.90;;
32319;SDS011;19080;51.750;5.888;2023-07-08T14:06:21;6.15;;;4.90;;
32319;SDS011;19080;51.750;5.888;2023-07-08T14:08:50;8.85;;;5.68;;
32319;SDS011;19080;51.750;5.888;2023-07-08T14:13:47;6.20;;;5.38;;
32319;SDS011;19080;51.750;5.888;2023-07-08T14:16:27;8.23;;;5.88;;
32319;SDS011;19080;51.750;5.888;2023-07-08T14:18:57;7.13;;;4.72;;
32319;SDS011;19080;51.750;5.888;2023-07-08T14:21:26;8.95;;;4.90;;
32319;SDS011;19080;51.750;5.888;2023-07-08T14:23:52;7.00;;;4.57;;
32319;SDS011;19080;51.750;5.888;2023-07-08T14:26:20;6.18;;;4.78;;
32319;SDS011;19080;51.750;5.888;2023-07-08T14:28:47;7.45;;;5.10;;
32319;SDS011;19080;51.750;5.888;2023-07-08T14:31:14;6.88;;;4.90;;
32319;SDS011;19080;51.750;5.888;2023-07-08T14:33:48;5.22;;;4.68;;
32319;SDS011;19080;51.750;5.888;2023-07-08T14:36:15;8.50;;;5.35;;
32319;SDS011;19080;51.750;5.888;2023-07-08T14:38:42;6.20;;;5.38;;
32319;SDS011;19080;51.750;5.888;2023-07-08T14:41:08;7.53;;;5.00;;
32319;SDS011;19080;51.750;5.888;2023-07-08T14:43:35;5.15;;;4.60;;
32319;SDS011;19080;51.750;5.888;2023-07-08T14:46:05;10.57;;;5.53;;
32319;SDS011;19080;51.750;5.888;2023-07-08T14:48:36;7.33;;;4.97;;
32319;SDS011;19080;51.750;5.888;2023-07-08T14:51:02;7.32;;;5.22;;
32319;SDS011;19080;51.750;5.888;2023-07-08T14:53:29;8.10;;;4.85;;
32319;SDS011;19080;51.750;5.888;2023-07-08T14:55:56;7.05;;;5.30;;
32319;SDS011;19080;51.750;5.888;2023-07-08T14:58:33;9.10;;;4.55;;
32319;SDS011;19080;51.750;5.888;2023-07-08T15:01:00;6.45;;;5.03;;
32319;SDS011;19080;51.750;5.888;2023-07-08T15:03:34;7.32;;;5.15;;
32319;SDS011;19080;51.750;5.888;2023-07-08T15:06:01;5.55;;;4.95;;
32319;SDS011;19080;51.750;5.888;2023-07-08T15:08:27;6.25;;;4.70;;
32319;SDS011;19080;51.750;5.888;2023-07-08T15:10:54;6.68;;;5.00;;
32319;SDS011;19080;51.750;5.888;2023-07-08T15:13:21;6.32;;;5.32;;
32319;SDS011;19080;51.750;5.888;2023-07-08T15:15:52;5.63;;;4.70;;
32319;SDS011;19080;51.750;5.888;2023-07-08T15:18:20;7.72;;;4.93;;
32319;SDS011;19080;51.750;5.888;2023-07-08T15:20:47;6.40;;;4.85;;
32319;SDS011;19080;51.750;5.888;2023-07-08T15:23:13;7.35;;;5.05;;
32319;SDS011;19080;51.750;5.888;2023-07-08T15:25:41;8.65;;;4.82;;
32319;SDS011;19080;51.750;5.888;2023-07-08T15:28:52;8.50;;;5.35;;
32319;SDS011;19080;51.750;5.888;2023-07-08T15:31:17;7.20;;;5.10;;
32319;SDS011;19080;51.750;5.888;2023-07-08T15:33:46;6.97;;;4.70;;
32319;SDS011;19080;51.750;5.888;2023-07-08T15:36:13;6.85;;;5.00;;
32319;SDS011;19080;51.750;5.888;2023-07-08T15:38:40;8.15;;;4.25;;
32319;SDS011;19080;51.750;5.888;2023-07-08T15:41:18;6.45;;;5.18;;
32319;SDS011;19080;51.750;5.888;2023-07-08T15:43:49;7.82;;;4.68;;
32319;SDS011;19080;51.750;5.888;2023-07-08T15:46:16;6.05;;;5.15;;
32319;SDS011;19080;51.750;5.888;2023-07-08T15:48:43;7.30;;;5.20;;
32319;SDS011;19080;51.750;5.888;2023-07-08T15:51:13;9.07;;;4.95;;
32319;SDS011;19080;51.750;5.888;2023-07-08T15:56:12;6.72;;;4.80;;
32319;SDS011;19080;51.750;5.888;2023-07-08T15:58:41;6.10;;;4.63;;
32319;SDS011;19080;51.750;5.888;2023-07-08T16:01:10;6.97;;;5.35;;
32319;SDS011;19080;51.750;5.888;2023-07-08T16:03:49;7.05;;;5.32;;
32319;SDS011;19080;51.750;5.888;2023-07-08T16:06:17;7.85;;;5.53;;
32319;SDS011;19080;51.750;5.888;2023-07-08T16:08:44;10.30;;;4.97;;
32319;SDS011;19080;51.750;5.888;2023-07-08T16:11:16;6.45;;;5.45;;
32319;SDS011;19080;51.750;5.888;2023-07-08T16:13:53;6.60;;;5.20;;
32319;SDS011;19080;51.750;5.888;2023-07-08T16:16:20;5.82;;;4.70;;
32319;SDS011;19080;51.750;5.888;2023-07-08T16:18:49;8.27;;;4.97;;
32319;SDS011;19080;51.750;5.888;2023-07-08T16:21:16;8.55;;;4.97;;